createdAt,value
2023-01-31T00:00:07.847Z,14.11
2023-01-31T00:02:35.530Z,14.11
2023-01-31T00:05:03.434Z,14.11
2023-01-31T00:07:31.044Z,14.11
2023-01-31T00:09:58.656Z,14.12
2023-01-31T00:12:26.314Z,14.12
2023-01-31T00:14:55.349Z,14.12
2023-01-31T00:17:23.071Z,14.11
2023-01-31T00:19:50.725Z,14.11
2023-01-31T00:22:18.384Z,14.11
2023-01-31T00:24:45.993Z,14.12
2023-01-31T00:27:13.701Z,14.12
2023-01-31T00:29:41.370Z,14.12
2023-01-31T00:32:10.564Z,14.11
2023-01-31T00:34:38.265Z,14.11
2023-01-31T00:37:05.884Z,14.12
2023-01-31T00:39:33.547Z,14.12
2023-01-31T00:42:01.172Z,14.12
2023-01-31T00:44:28.815Z,14.11
2023-01-31T00:46:56.452Z,14.11
2023-01-31T00:49:25.491Z,14.11
2023-01-31T00:51:53.123Z,14.12
2023-01-31T00:54:20.789Z,14.12
2023-01-31T00:56:48.425Z,14.11
2023-01-31T00:59:16.439Z,14.11
2023-01-31T01:01:44.275Z,14.11
2023-01-31T01:04:12.017Z,14.12
2023-01-31T01:06:41.854Z,14.12
2023-01-31T01:09:09.545Z,14.12
2023-01-31T01:11:37.289Z,14.11
2023-01-31T01:14:05.771Z,14.10
2023-01-31T01:16:36.628Z,14.10
2023-01-31T01:19:05.778Z,14.10
2023-01-31T01:21:40.656Z,14.10
2023-01-31T01:24:14.438Z,14.11
2023-01-31T01:26:42.492Z,14.10
2023-01-31T01:29:10.575Z,14.09
2023-01-31T01:31:39.222Z,14.10
2023-01-31T01:34:08.840Z,14.10
2023-01-31T01:36:38.090Z,14.09
2023-01-31T01:39:09.610Z,14.10
2023-01-31T01:41:40.241Z,14.08
2023-01-31T01:44:41.240Z,14.09
2023-01-31T01:47:16.100Z,14.08
2023-01-31T01:49:44.018Z,14.06
2023-01-31T01:52:15.350Z,14.07
2023-01-31T01:54:47.987Z,14.08
2023-01-31T01:57:21.078Z,14.07
2023-01-31T01:59:54.931Z,14.08
2023-01-31T02:02:22.868Z,14.07
2023-01-31T02:04:52.897Z,14.07
2023-01-31T02:07:20.953Z,14.06
2023-01-31T02:09:55.942Z,14.07
2023-01-31T02:12:26.247Z,14.07
2023-01-31T02:14:54.256Z,14.07
2023-01-31T02:17:22.051Z,14.07
2023-01-31T02:20:04.742Z,14.07
2023-01-31T02:22:35.658Z,14.07
2023-01-31T02:25:42.360Z,14.07
2023-01-31T02:28:45.599Z,14.07
2023-01-31T02:31:43.538Z,14.06
2023-01-31T02:34:18.864Z,14.07
2023-01-31T02:37:00.140Z,14.07
2023-01-31T02:39:37.013Z,14.07
2023-01-31T02:42:15.192Z,14.06
2023-01-31T02:45:02.465Z,14.07
2023-01-31T02:47:42.196Z,14.06
2023-01-31T02:50:15.465Z,14.05
2023-01-31T02:52:49.575Z,14.06
2023-01-31T02:55:39.250Z,14.06
2023-01-31T02:58:10.493Z,14.05
2023-01-31T03:00:40.715Z,14.04
2023-01-31T03:03:10.122Z,14.05
2023-01-31T03:05:39.127Z,14.06
2023-01-31T03:08:08.573Z,14.06
2023-01-31T03:10:54.200Z,14.05
2023-01-31T03:13:34.572Z,14.05
2023-01-31T03:16:31.126Z,14.05
2023-01-31T03:19:13.531Z,14.05
2023-01-31T03:21:47.716Z,14.05
2023-01-31T03:24:18.217Z,14.05
2023-01-31T03:26:47.501Z,14.05
2023-01-31T03:29:17.708Z,14.05
2023-01-31T03:31:49.900Z,14.06
2023-01-31T03:34:18.506Z,14.06
2023-01-31T03:36:55.158Z,14.05
2023-01-31T03:39:33.905Z,14.06
2023-01-31T03:42:07.566Z,14.05
2023-01-31T03:44:45.102Z,14.04
2023-01-31T03:47:18.028Z,14.05
2023-01-31T03:49:47.371Z,14.04
2023-01-31T03:52:23.314Z,14.05
2023-01-31T03:54:55.770Z,14.04
2023-01-31T03:57:26.419Z,14.06
2023-01-31T03:59:59.259Z,14.04
2023-01-31T04:02:33.292Z,14.05
2023-01-31T04:05:07.164Z,14.05
2023-01-31T04:07:37.801Z,14.03
2023-01-31T04:10:08.305Z,14.04
2023-01-31T04:12:37.679Z,14.04
2023-01-31T04:15:06.521Z,14.04
2023-01-31T04:17:34.305Z,14.05
2023-01-31T04:20:02.016Z,14.04
2023-01-31T04:22:29.696Z,14.04
2023-01-31T04:24:58.688Z,14.03
2023-01-31T04:27:26.334Z,14.05
2023-01-31T04:29:53.972Z,14.04
2023-01-31T04:32:21.639Z,14.05
2023-01-31T04:34:49.344Z,14.03
2023-01-31T04:37:17.100Z,14.03
2023-01-31T04:39:44.725Z,14.03
2023-01-31T04:42:13.718Z,14.03
2023-01-31T04:44:41.354Z,14.04
2023-01-31T04:47:09.083Z,14.04
2023-01-31T04:49:36.790Z,14.05
2023-01-31T04:52:04.520Z,14.05
2023-01-31T04:54:33.004Z,14.05
2023-01-31T04:57:01.808Z,14.04
2023-01-31T04:59:30.787Z,14.04
2023-01-31T05:01:58.429Z,14.05
2023-01-31T05:04:26.421Z,14.04
2023-01-31T05:06:54.079Z,14.06
2023-01-31T05:09:22.818Z,14.06
2023-01-31T05:11:50.847Z,14.07
2023-01-31T05:14:21.036Z,14.08
2023-01-31T05:16:50.119Z,14.09
2023-01-31T05:19:18.133Z,14.10
2023-01-31T05:21:59.287Z,14.10
2023-01-31T05:24:29.185Z,14.10
2023-01-31T05:26:58.791Z,14.10
2023-01-31T05:29:27.453Z,14.11
2023-01-31T05:31:58.676Z,14.11
2023-01-31T05:34:28.658Z,14.10
2023-01-31T05:36:56.623Z,14.10
2023-01-31T05:39:24.280Z,14.11
2023-01-31T05:41:52.811Z,14.11
2023-01-31T05:44:20.770Z,14.11
2023-01-31T05:46:48.593Z,14.12
2023-01-31T05:49:17.879Z,14.12
2023-01-31T05:51:45.576Z,14.11
2023-01-31T05:54:13.693Z,14.12
2023-01-31T05:56:41.312Z,14.12
2023-01-31T05:59:09.080Z,14.12
2023-01-31T06:01:36.790Z,14.13
2023-01-31T06:04:04.492Z,14.13
2023-01-31T06:06:33.514Z,14.13
2023-01-31T06:09:01.234Z,14.12
2023-01-31T06:11:28.948Z,14.12
2023-01-31T06:13:58.365Z,14.12
2023-01-31T06:16:26.531Z,14.14
2023-01-31T06:18:55.653Z,14.13
2023-01-31T06:21:23.631Z,14.15
2023-01-31T06:23:52.642Z,14.14
2023-01-31T06:26:20.305Z,14.14
2023-01-31T06:28:47.983Z,14.15
2023-01-31T06:31:15.703Z,14.15
2023-01-31T06:33:47.261Z,14.15
2023-01-31T06:36:18.669Z,14.14
2023-01-31T06:38:50.237Z,14.14
2023-01-31T06:41:19.674Z,14.16
2023-01-31T06:43:47.319Z,14.16
2023-01-31T06:46:15.529Z,14.15
2023-01-31T06:48:43.790Z,14.16
2023-01-31T06:51:11.539Z,14.14
2023-01-31T06:53:39.182Z,14.14
2023-01-31T06:56:07.869Z,14.15
2023-01-31T06:58:36.880Z,14.14
2023-01-31T07:01:07.996Z,14.14
2023-01-31T07:03:36.079Z,14.14
2023-01-31T07:06:03.754Z,14.14
2023-01-31T07:08:34.977Z,14.15
2023-01-31T07:11:04.303Z,14.14
2023-01-31T07:13:32.597Z,14.13
2023-01-31T07:16:01.822Z,14.13
2023-01-31T07:18:30.196Z,14.11
2023-01-31T07:20:57.900Z,14.13
2023-01-31T07:23:25.578Z,14.13
2023-01-31T07:25:53.214Z,14.12
2023-01-31T07:28:20.936Z,14.12
2023-01-31T07:30:48.676Z,14.11
2023-01-31T07:33:17.690Z,14.11
2023-01-31T07:35:45.360Z,14.12
2023-01-31T07:38:12.971Z,14.11
2023-01-31T07:40:41.063Z,14.11
2023-01-31T07:43:08.839Z,14.10
2023-01-31T07:45:36.843Z,14.11
2023-01-31T07:48:06.171Z,14.11
2023-01-31T07:50:35.239Z,14.10
2023-01-31T07:53:02.856Z,14.10
2023-01-31T07:55:30.779Z,14.10
2023-01-31T07:57:58.470Z,14.11
2023-01-31T08:00:44.115Z,14.11
2023-01-31T08:03:34.002Z,14.10
2023-01-31T08:06:05.243Z,14.10
2023-01-31T08:08:32.966Z,14.11
2023-01-31T08:11:00.622Z,14.11
2023-01-31T08:13:28.359Z,14.10
2023-01-31T08:15:56.003Z,14.10
2023-01-31T08:18:23.694Z,14.11
2023-01-31T08:20:51.332Z,14.10
2023-01-31T08:23:20.386Z,14.10
2023-01-31T08:25:48.017Z,14.10
2023-01-31T08:28:16.218Z,14.10
2023-01-31T08:30:50.315Z,14.09
2023-01-31T08:33:23.982Z,14.10
2023-01-31T08:35:51.797Z,14.10
2023-01-31T08:38:20.876Z,14.09
2023-01-31T08:40:48.702Z,14.11
2023-01-31T08:43:16.318Z,14.10
2023-01-31T08:45:43.985Z,14.10
2023-01-31T08:48:12.605Z,14.10
2023-01-31T08:50:40.644Z,14.10
2023-01-31T08:53:08.385Z,14.10
2023-01-31T08:55:38.028Z,14.10
2023-01-31T08:58:05.928Z,14.10
2023-01-31T09:00:34.028Z,14.09
2023-01-31T09:03:02.062Z,14.10
2023-01-31T09:05:31.127Z,14.10
2023-01-31T09:07:58.842Z,14.11
2023-01-31T09:10:26.491Z,14.10
2023-01-31T09:12:55.464Z,14.11
2023-01-31T09:15:23.546Z,14.11
2023-01-31T09:17:51.558Z,14.10
2023-01-31T09:20:19.465Z,14.10
2023-01-31T09:22:47.085Z,14.11
2023-01-31T09:25:14.843Z,14.10
2023-01-31T09:27:42.478Z,14.09
2023-01-31T09:30:12.865Z,14.10
2023-01-31T09:32:41.418Z,14.11
2023-01-31T09:35:09.708Z,14.09
2023-01-31T09:37:37.738Z,14.10
2023-01-31T09:40:06.412Z,14.09
2023-01-31T09:42:38.623Z,14.11
2023-01-31T09:45:13.892Z,14.10
2023-01-31T09:47:47.960Z,14.10
2023-01-31T09:50:21.719Z,14.11
2023-01-31T09:52:50.351Z,14.11
2023-01-31T09:55:20.379Z,14.11
2023-01-31T09:57:55.332Z,14.11
2023-01-31T10:00:29.554Z,14.10
2023-01-31T10:03:33.248Z,14.11
2023-01-31T10:06:10.377Z,14.11
2023-01-31T10:08:46.604Z,14.10
2023-01-31T10:11:23.789Z,14.12
2023-01-31T10:13:54.620Z,14.10
2023-01-31T10:16:28.047Z,14.10
2023-01-31T10:19:02.317Z,14.11
2023-01-31T10:21:33.565Z,14.12
2023-01-31T10:24:06.007Z,14.11
2023-01-31T10:26:37.802Z,14.11
2023-01-31T10:29:13.726Z,14.12
2023-01-31T10:31:44.754Z,14.12
2023-01-31T10:34:18.940Z,14.11
2023-01-31T10:36:52.827Z,14.11
2023-01-31T10:39:24.743Z,14.10
2023-01-31T10:42:12.571Z,14.11
2023-01-31T10:44:53.314Z,14.11
2023-01-31T10:47:22.919Z,14.11
2023-01-31T10:49:52.458Z,14.10
2023-01-31T10:52:39.411Z,14.11
2023-01-31T10:55:28.192Z,14.11
2023-01-31T10:57:56.876Z,14.11
2023-01-31T11:00:28.786Z,14.10
2023-01-31T11:02:56.716Z,14.10
2023-01-31T11:05:28.443Z,14.11
2023-01-31T11:07:57.235Z,14.11
2023-01-31T11:10:27.322Z,14.11
2023-01-31T11:12:57.381Z,14.11
2023-01-31T11:15:28.618Z,14.12
2023-01-31T11:18:01.029Z,14.11
2023-01-31T11:20:31.811Z,14.11
2023-01-31T11:23:02.441Z,14.12
2023-01-31T11:25:32.700Z,14.12
2023-01-31T11:28:02.704Z,14.11
2023-01-31T11:30:34.973Z,14.12
2023-01-31T11:33:03.278Z,14.11
2023-01-31T11:35:34.316Z,14.11
2023-01-31T11:38:04.356Z,14.11
2023-01-31T11:40:33.815Z,14.10
2023-01-31T11:43:03.180Z,14.10
2023-01-31T11:45:32.656Z,14.11
2023-01-31T11:48:08.601Z,14.11
2023-01-31T11:50:40.302Z,14.10
2023-01-31T11:53:18.041Z,14.11
2023-01-31T11:55:47.406Z,14.12
2023-01-31T11:58:20.542Z,14.11
2023-01-31T12:00:57.606Z,14.11
2023-01-31T12:03:27.082Z,14.11
2023-01-31T12:06:02.871Z,14.11
2023-01-31T12:08:33.174Z,14.11
2023-01-31T12:11:06.178Z,14.12
2023-01-31T12:13:47.571Z,14.13
2023-01-31T12:16:18.255Z,14.14
2023-01-31T12:18:56.473Z,14.13
2023-01-31T12:21:40.136Z,14.12
2023-01-31T12:24:19.077Z,14.13
2023-01-31T12:26:50.458Z,14.14
2023-01-31T12:29:44.562Z,14.13
2023-01-31T12:32:28.383Z,14.13
2023-01-31T12:35:24.434Z,14.14
2023-01-31T12:38:01.270Z,14.14
2023-01-31T12:40:40.774Z,14.14
2023-01-31T12:43:26.345Z,14.15
2023-01-31T12:46:09.595Z,14.14
2023-01-31T12:48:48.872Z,14.16
2023-01-31T12:51:29.658Z,14.16
2023-01-31T12:54:10.285Z,14.15
2023-01-31T12:56:47.909Z,14.15
2023-01-31T12:59:40.224Z,14.15
2023-01-31T13:02:23.654Z,14.16
2023-01-31T13:04:56.976Z,14.16
2023-01-31T13:07:31.938Z,14.17
2023-01-31T13:10:06.461Z,14.17
2023-01-31T13:12:36.203Z,14.18
2023-01-31T13:15:08.738Z,14.18
2023-01-31T13:17:40.607Z,14.19
2023-01-31T13:20:25.031Z,14.19
2023-01-31T13:22:56.277Z,14.19
2023-01-31T13:25:37.150Z,14.19
2023-01-31T13:28:08.538Z,14.18
2023-01-31T13:30:40.484Z,14.19
2023-01-31T13:33:19.566Z,14.19
2023-01-31T13:35:55.171Z,14.19
2023-01-31T13:38:24.817Z,14.19
2023-01-31T13:40:57.487Z,14.18
2023-01-31T13:43:25.144Z,14.19
2023-01-31T13:45:57.634Z,14.18
2023-01-31T13:48:30.814Z,14.19
2023-01-31T13:51:02.727Z,14.19
2023-01-31T13:53:34.461Z,14.19
2023-01-31T13:56:10.443Z,14.21
2023-01-31T13:58:38.756Z,14.19
2023-01-31T14:01:10.234Z,14.20
2023-01-31T14:04:11.310Z,14.20
2023-01-31T14:07:23.925Z,14.19
2023-01-31T14:10:34.042Z,14.20
2023-01-31T14:13:37.872Z,14.20
2023-01-31T14:16:38.453Z,14.20
2023-01-31T14:19:27.245Z,14.20
2023-01-31T14:21:58.048Z,14.20
2023-01-31T14:25:05.160Z,14.19
2023-01-31T14:27:40.725Z,14.20
2023-01-31T14:30:27.774Z,14.20
2023-01-31T14:33:15.468Z,14.19
2023-01-31T14:36:06.689Z,14.21
2023-01-31T14:39:03.697Z,14.21
2023-01-31T14:41:46.548Z,14.20
2023-01-31T14:44:30.127Z,14.22
2023-01-31T14:47:16.937Z,14.21
2023-01-31T14:50:14.790Z,14.21
2023-01-31T14:52:58.005Z,14.21
2023-01-31T14:55:47.851Z,14.21
2023-01-31T14:58:19.387Z,14.21
2023-01-31T15:00:52.877Z,14.21
2023-01-31T15:03:24.653Z,14.20
2023-01-31T15:05:56.900Z,14.20
2023-01-31T15:08:52.349Z,14.19
2023-01-31T15:11:43.049Z,14.20
2023-01-31T15:14:45.084Z,14.20
2023-01-31T15:17:33.590Z,14.20
2023-01-31T15:20:15.472Z,14.21
2023-01-31T15:22:46.682Z,14.21
2023-01-31T15:25:24.648Z,14.20
2023-01-31T15:27:53.941Z,14.20
2023-01-31T15:30:23.557Z,14.21
2023-01-31T15:32:54.742Z,14.21
2023-01-31T15:35:26.512Z,14.21
2023-01-31T15:38:01.667Z,14.21
2023-01-31T15:40:30.181Z,14.21
2023-01-31T15:43:19.171Z,14.20
2023-01-31T15:45:51.455Z,14.21
2023-01-31T15:48:20.931Z,14.20
2023-01-31T15:50:53.447Z,14.20
2023-01-31T15:53:25.066Z,14.21
2023-01-31T15:55:56.837Z,14.20
2023-01-31T15:58:26.870Z,14.21
2023-01-31T16:00:56.537Z,14.20
2023-01-31T16:03:26.459Z,14.20
2023-01-31T16:05:56.360Z,14.21
2023-01-31T16:08:29.741Z,14.21
2023-01-31T16:10:59.034Z,14.21
2023-01-31T16:13:27.734Z,14.21
2023-01-31T16:15:55.662Z,14.22
2023-01-31T16:18:23.753Z,14.22
2023-01-31T16:20:53.995Z,14.22
2023-01-31T16:23:32.225Z,14.21
2023-01-31T16:26:06.032Z,14.21
2023-01-31T16:28:38.983Z,14.22
2023-01-31T16:31:09.883Z,14.21
2023-01-31T16:33:38.322Z,14.21
2023-01-31T16:36:14.421Z,14.20
2023-01-31T16:38:57.309Z,14.21
2023-01-31T16:41:45.258Z,14.21
2023-01-31T16:44:16.715Z,14.21
2023-01-31T16:46:46.395Z,14.23
2023-01-31T16:49:23.544Z,14.20
2023-01-31T16:51:52.948Z,14.22
2023-01-31T16:54:24.390Z,14.21
2023-01-31T16:57:23.488Z,14.21
2023-01-31T16:59:52.575Z,14.21
2023-01-31T17:02:24.602Z,14.21
2023-01-31T17:04:55.121Z,14.22
2023-01-31T17:07:25.639Z,14.22
2023-01-31T17:10:00.086Z,14.22
2023-01-31T17:12:29.726Z,14.22
2023-01-31T17:15:02.432Z,14.22
2023-01-31T17:17:35.091Z,14.22
2023-01-31T17:20:02.750Z,14.22
2023-01-31T17:22:30.689Z,14.22
2023-01-31T17:24:59.736Z,14.22
2023-01-31T17:27:27.504Z,14.22
2023-01-31T17:29:55.121Z,14.22
2023-01-31T17:32:22.942Z,14.22
2023-01-31T17:34:50.559Z,14.23
2023-01-31T17:37:30.062Z,14.23
2023-01-31T17:40:00.780Z,14.23
2023-01-31T17:42:28.429Z,14.22
2023-01-31T17:44:56.038Z,14.23
2023-01-31T17:47:25.224Z,14.23
2023-01-31T17:49:54.426Z,14.23
2023-01-31T17:52:22.079Z,14.23
2023-01-31T17:54:49.732Z,14.21
2023-01-31T17:57:18.769Z,14.22
2023-01-31T17:59:46.411Z,14.23
2023-01-31T18:02:14.076Z,14.23
2023-01-31T18:04:41.727Z,14.23
2023-01-31T18:07:09.346Z,14.24
2023-01-31T18:09:36.985Z,14.24
2023-01-31T18:12:05.009Z,14.24
2023-01-31T18:14:34.081Z,14.24
2023-01-31T18:17:01.713Z,14.25
2023-01-31T18:19:29.395Z,14.25
2023-01-31T18:21:57.191Z,14.25
2023-01-31T18:24:25.071Z,14.26
2023-01-31T18:26:53.060Z,14.25
2023-01-31T18:29:21.318Z,14.25
2023-01-31T18:31:50.914Z,14.25
2023-01-31T18:34:18.561Z,14.25
2023-01-31T18:36:46.239Z,14.24
2023-01-31T18:39:14.135Z,14.24
2023-01-31T18:41:41.784Z,14.24
2023-01-31T18:44:09.534Z,14.24
2023-01-31T18:46:38.120Z,14.23
2023-01-31T18:49:07.617Z,14.23
2023-01-31T18:51:35.442Z,14.24
2023-01-31T18:54:03.082Z,14.24
2023-01-31T18:56:31.279Z,14.23
2023-01-31T18:58:59.514Z,14.23
2023-01-31T19:01:29.622Z,14.22
2023-01-31T19:03:58.549Z,14.24
2023-01-31T19:06:30.126Z,14.23
2023-01-31T19:08:59.092Z,14.23
2023-01-31T19:11:28.504Z,14.23
2023-01-31T19:13:56.596Z,14.23
2023-01-31T19:16:26.311Z,14.23
2023-01-31T19:18:54.095Z,14.24
2023-01-31T19:21:23.816Z,14.22
2023-01-31T19:23:55.789Z,14.23
2023-01-31T19:26:24.368Z,14.23
2023-01-31T19:28:52.753Z,14.24
2023-01-31T19:31:22.784Z,14.23
2023-01-31T19:33:51.629Z,14.23
2023-01-31T19:36:21.179Z,14.23
2023-01-31T19:38:49.192Z,14.22
2023-01-31T19:41:20.882Z,14.23
2023-01-31T19:43:50.323Z,14.22
2023-01-31T19:46:18.522Z,14.23
2023-01-31T19:48:46.468Z,14.23
2023-01-31T19:51:15.651Z,14.23
2023-01-31T19:53:45.248Z,14.24
2023-01-31T19:56:13.087Z,14.24
2023-01-31T19:58:42.493Z,14.25
2023-01-31T20:01:11.699Z,14.24
2023-01-31T20:03:39.855Z,14.25
2023-01-31T20:06:09.306Z,14.24
2023-01-31T20:08:37.557Z,14.25
2023-01-31T20:11:07.673Z,14.26
2023-01-31T20:13:36.155Z,14.25
2023-01-31T20:16:07.835Z,14.26
2023-01-31T20:18:35.660Z,14.25
2023-01-31T20:21:04.069Z,14.25
2023-01-31T20:23:31.903Z,14.25
2023-01-31T20:25:59.667Z,14.26
2023-01-31T20:28:28.119Z,14.25
2023-01-31T20:30:56.085Z,14.25
2023-01-31T20:33:25.100Z,14.25
2023-01-31T20:35:52.724Z,14.25
2023-01-31T20:38:20.420Z,14.25
2023-01-31T20:40:51.615Z,14.25
2023-01-31T20:43:19.812Z,14.25
2023-01-31T20:45:47.693Z,14.26
2023-01-31T20:48:15.593Z,14.25
2023-01-31T20:50:45.391Z,14.26
2023-01-31T20:53:19.862Z,14.26
2023-01-31T20:55:54.856Z,14.26
2023-01-31T20:58:23.232Z,14.25
2023-01-31T21:00:55.476Z,14.25
2023-01-31T21:03:24.445Z,14.25
2023-01-31T21:05:54.115Z,14.26
2023-01-31T21:08:23.011Z,14.26
2023-01-31T21:10:51.261Z,14.26
2023-01-31T21:13:19.228Z,14.26
2023-01-31T21:15:52.859Z,14.26
2023-01-31T21:18:26.380Z,14.26
2023-01-31T21:20:56.566Z,14.25
2023-01-31T21:23:24.396Z,14.27
2023-01-31T21:25:52.027Z,14.26
2023-01-31T21:28:19.738Z,14.26
2023-01-31T21:30:58.393Z,14.26
2023-01-31T21:33:26.298Z,14.25
2023-01-31T21:35:55.266Z,14.24
2023-01-31T21:38:22.916Z,14.25
2023-01-31T21:41:10.980Z,14.26
2023-01-31T21:43:40.316Z,14.24
2023-01-31T21:46:08.740Z,14.24
2023-01-31T21:48:36.947Z,14.25
2023-01-31T21:51:08.162Z,14.23
2023-01-31T21:53:36.566Z,14.24
2023-01-31T21:56:05.667Z,14.25
2023-01-31T21:58:34.055Z,14.24
2023-01-31T22:01:06.434Z,14.24
2023-01-31T22:03:35.426Z,14.24
2023-01-31T22:06:03.441Z,14.24
2023-01-31T22:08:32.478Z,14.24
2023-01-31T22:11:01.937Z,14.23
2023-01-31T22:13:29.990Z,14.23
2023-01-31T22:16:01.923Z,14.24
2023-01-31T22:18:30.149Z,14.23
2023-01-31T22:21:03.022Z,14.23
2023-01-31T22:23:32.329Z,14.23
2023-01-31T22:26:04.222Z,14.22
2023-01-31T22:28:31.975Z,14.22
2023-01-31T22:31:00.784Z,14.22
2023-01-31T22:33:28.997Z,14.21
2023-01-31T22:35:57.148Z,14.22
2023-01-31T22:38:25.437Z,14.22
2023-01-31T22:40:58.420Z,14.21
2023-01-31T22:43:26.180Z,14.22
2023-01-31T22:45:55.192Z,14.22
2023-01-31T22:48:24.829Z,14.21
2023-01-31T22:50:56.633Z,14.20
2023-01-31T22:53:25.114Z,14.21
2023-01-31T22:55:54.492Z,14.21
2023-01-31T22:58:22.539Z,14.20
2023-01-31T23:00:50.519Z,14.21
2023-01-31T23:03:18.217Z,14.22
2023-01-31T23:05:45.920Z,14.21
2023-01-31T23:08:14.583Z,14.20
2023-01-31T23:10:42.769Z,14.20
2023-01-31T23:13:12.288Z,14.20
2023-01-31T23:15:40.483Z,14.19
2023-01-31T23:18:08.414Z,14.19
2023-01-31T23:20:36.408Z,14.20
2023-01-31T23:23:04.039Z,14.18
2023-01-31T23:25:31.707Z,14.19
2023-01-31T23:28:00.645Z,14.19
2023-01-31T23:30:29.633Z,14.18
2023-01-31T23:32:57.252Z,14.18
2023-01-31T23:35:24.864Z,14.17
2023-01-31T23:37:52.553Z,14.18
2023-01-31T23:40:21.271Z,14.18
2023-01-31T23:42:49.076Z,14.17
2023-01-31T23:45:16.882Z,14.17
2023-01-31T23:47:45.908Z,14.17
2023-01-31T23:50:13.520Z,14.17
2023-01-31T23:52:41.183Z,14.16
2023-01-31T23:55:09.359Z,14.17
2023-01-31T23:57:37.172Z,14.16
